Time;durP1;ratioP1;P1;durP2;ratioP2;P2;SDS_P1;SDS_P2;PMS_P1;PMS_P2;Temp;Humidity;BMP_temperature;BMP_pressure;BME280_temperature;BME280_humidity;BME280_pressure;Samples;Min_cycle;Max_cycle;Signal;HPM_P1;HPM_P2
2021/05/03 00:01:40;;;;;;;5.55;2.75;;;4.90;99.90;;;;;;5032917;28;20380;-74
2021/05/03 00:04:05;;;;;;;6.78;2.85;;;4.80;99.90;;;;;;5033125;28;20503;-73
2021/05/03 00:06:31;;;;;;;7.05;3.33;;;4.90;99.90;;;;;;5031777;28;20544;-74
2021/05/03 00:08:57;;;;;;;7.15;2.72;;;4.70;99.90;;;;;;5031593;28;20124;-74
2021/05/03 00:11:23;;;;;;;6.40;2.60;;;4.60;99.90;;;;;;5031600;28;20032;-74
2021/05/03 00:13:48;;;;;;;5.60;2.97;;;4.50;99.90;;;;;;5032839;28;20034;-74
2021/05/03 00:16:14;;;;;;;8.05;3.13;;;4.70;99.90;;;;;;5032766;28;20083;-74
2021/05/03 00:18:39;;;;;;;6.80;3.22;;;4.80;99.90;;;;;;5032688;28;20027;-74
2021/05/03 00:21:05;;;;;;;7.82;3.22;;;4.80;99.90;;;;;;5031225;28;20021;-74
2021/05/03 00:23:30;;;;;;;7.82;3.38;;;4.70;99.90;;;;;;5032392;28;20036;-73
2021/05/03 00:25:56;;;;;;;10.20;3.95;;;4.70;99.90;;;;;;5032641;28;20037;-73
2021/05/03 00:28:21;;;;;;;6.65;3.30;;;4.50;99.90;;;;;;5031423;28;20029;-74
2021/05/03 00:30:47;;;;;;;9.70;3.42;;;4.40;99.90;;;;;;5032361;28;20048;-74
2021/05/03 00:33:12;;;;;;;8.48;3.47;;;4.20;99.90;;;;;;5032766;28;20032;-73
2021/05/03 00:35:38;;;;;;;8.77;3.20;;;4.20;99.90;;;;;;5032464;28;20034;-74
2021/05/03 00:38:05;;;;;;;7.55;3.28;;;4.30;99.90;;;;;;5032405;28;20032;-74
2021/05/03 00:40:31;;;;;;;7.57;3.10;;;4.30;99.90;;;;;;5032220;28;20022;-73
2021/05/03 00:42:57;;;;;;;9.30;3.60;;;4.30;99.90;;;;;;5032057;28;20036;-74
2021/05/03 00:45:23;;;;;;;8.40;3.20;;;4.30;99.90;;;;;;5032283;28;20029;-74
2021/05/03 00:47:49;;;;;;;12.77;4.32;;;4.40;99.90;;;;;;5032201;28;20395;-74
2021/05/03 00:50:18;;;;;;;16.00;6.68;;;4.40;99.90;;;;;;5030865;28;20033;-74
2021/05/03 00:52:44;;;;;;;16.10;5.50;;;4.50;99.90;;;;;;5032181;28;20036;-74
2021/05/03 00:55:11;;;;;;;16.48;6.35;;;4.50;99.90;;;;;;5030801;28;20400;-74
2021/05/03 00:57:38;;;;;;;15.00;6.35;;;4.70;99.90;;;;;;5030575;28;20040;-75
2021/05/03 01:00:06;;;;;;;11.70;5.32;;;4.80;99.90;;;;;;5029982;28;20071;-74
2021/05/03 01:02:32;;;;;;;8.70;3.83;;;4.90;99.90;;;;;;5030421;28;20484;-74
2021/05/03 01:04:57;;;;;;;8.77;4.03;;;5.00;99.90;;;;;;5031895;28;20142;-75
2021/05/03 01:07:23;;;;;;;7.47;3.13;;;5.00;99.90;;;;;;5031964;28;20032;-74
2021/05/03 01:09:49;;;;;;;7.65;3.53;;;5.00;99.90;;;;;;5031756;28;20480;-74
2021/05/03 01:12:14;;;;;;;8.20;4.13;;;5.00;99.90;;;;;;5031462;28;20025;-73
2021/05/03 01:14:40;;;;;;;9.52;4.85;;;5.00;99.90;;;;;;5030267;28;20541;-74
2021/05/03 01:17:05;;;;;;;7.50;3.78;;;5.10;99.90;;;;;;5031606;28;20489;-73
2021/05/03 01:19:31;;;;;;;7.43;4.45;;;5.20;99.90;;;;;;5031606;28;20030;-73
2021/05/03 01:21:57;;;;;;;7.70;3.55;;;5.20;99.90;;;;;;5031082;28;20022;-72
2021/05/03 01:24:22;;;;;;;10.13;4.50;;;5.20;99.90;;;;;;5030570;28;20025;-73
2021/05/03 01:26:48;;;;;;;7.90;4.20;;;5.10;99.90;;;;;;5031479;28;20032;-73
2021/05/03 01:29:15;;;;;;;14.95;7.20;;;5.10;99.90;;;;;;5031356;28;20037;-73
2021/05/03 01:31:45;;;;;;;16.23;8.13;;;5.20;99.90;;;;;;5031592;28;20021;-76
2021/05/03 01:34:10;;;;;;;10.88;5.20;;;5.30;99.90;;;;;;5031663;28;20076;-73
2021/05/03 01:36:43;;;;;;;11.20;5.88;;;5.30;99.90;;;;;;5030206;28;20025;-73
2021/05/03 01:39:17;;;;;;;15.55;7.30;;;5.40;99.90;;;;;;5031265;28;20104;-73
2021/05/03 01:41:43;;;;;;;15.52;5.50;;;5.40;99.90;;;;;;5031222;28;20404;-73
2021/05/03 01:44:11;;;;;;;15.18;7.45;;;5.40;99.90;;;;;;5031575;28;20053;-75
2021/05/03 01:46:38;;;;;;;9.13;4.93;;;5.40;99.90;;;;;;5031245;28;20025;-74
2021/05/03 01:49:06;;;;;;;9.07;4.20;;;5.40;99.90;;;;;;5031036;28;20565;-74
2021/05/03 01:51:32;;;;;;;10.77;5.43;;;5.50;99.90;;;;;;5030880;28;20033;-73
2021/05/03 01:53:58;;;;;;;8.95;5.13;;;5.50;99.90;;;;;;5031150;28;20032;-73
2021/05/03 01:56:26;;;;;;;9.27;5.63;;;5.50;99.90;;;;;;5031346;28;20447;-74
2021/05/03 01:58:52;;;;;;;10.27;4.82;;;5.40;99.90;;;;;;5030884;28;20025;-74
2021/05/03 02:01:19;;;;;;;9.10;4.90;;;5.40;99.90;;;;;;5029561;28;20025;-73
2021/05/03 02:03:44;;;;;;;9.85;4.72;;;5.40;99.90;;;;;;5030921;28;20048;-73
2021/05/03 02:06:13;;;;;;;8.52;4.43;;;5.40;99.90;;;;;;5030892;28;20030;-73
2021/05/03 02:08:38;;;;;;;8.80;3.38;;;5.50;99.90;;;;;;5029495;28;20025;-75
2021/05/03 02:11:04;;;;;;;10.77;3.72;;;5.50;99.90;;;;;;5030729;28;20053;-74
2021/05/03 02:13:30;;;;;;;7.57;3.17;;;5.30;99.90;;;;;;5029712;28;20033;-73
2021/05/03 02:15:56;;;;;;;7.18;3.17;;;5.30;99.90;;;;;;5031040;28;20032;-73
2021/05/03 02:18:21;;;;;;;9.43;3.40;;;5.30;99.90;;;;;;5030870;28;20037;-73
2021/05/03 02:20:47;;;;;;;5.95;3.47;;;5.20;99.90;;;;;;5030429;28;20026;-74
2021/05/03 02:23:13;;;;;;;7.35;3.08;;;5.20;99.90;;;;;;5030449;28;20022;-73
2021/05/03 02:25:39;;;;;;;6.75;3.65;;;4.90;99.90;;;;;;5030597;28;20029;-74
2021/05/03 02:28:04;;;;;;;6.72;3.95;;;4.80;99.90;;;;;;5029666;28;20083;-74
2021/05/03 02:30:30;;;;;;;7.78;3.50;;;4.80;99.90;;;;;;5030424;28;20037;-74
2021/05/03 02:32:56;;;;;;;6.07;3.05;;;4.60;99.90;;;;;;5029206;28;20385;-74
2021/05/03 02:35:24;;;;;;;8.38;3.55;;;4.60;99.90;;;;;;5029376;28;20025;-73
2021/05/03 02:37:58;;;;;;;7.40;4.32;;;4.60;99.90;;;;;;5031024;28;20376;-74
2021/05/03 02:40:24;;;;;;;7.40;3.85;;;4.60;99.90;;;;;;5030605;28;20028;-73
2021/05/03 02:42:56;;;;;;;6.85;3.65;;;4.80;99.90;;;;;;5030228;28;20546;-73
2021/05/03 02:45:22;;;;;;;5.68;3.30;;;4.90;99.90;;;;;;5030633;28;20030;-73
2021/05/03 02:47:48;;;;;;;6.35;3.63;;;5.10;99.90;;;;;;5030512;28;20030;-73
2021/05/03 02:50:15;;;;;;;7.07;3.35;;;5.00;99.90;;;;;;5030605;28;20044;-73
2021/05/03 02:52:42;;;;;;;8.90;4.70;;;5.10;99.90;;;;;;5029177;28;20021;-73
2021/05/03 02:55:11;;;;;;;7.75;3.63;;;4.90;99.90;;;;;;5030369;28;20025;-73
2021/05/03 02:57:38;;;;;;;10.23;4.22;;;4.90;99.90;;;;;;5030441;28;20488;-75
2021/05/03 03:00:06;;;;;;;8.98;3.75;;;4.90;99.90;;;;;;5030506;28;20034;-72
2021/05/03 03:02:32;;;;;;;8.20;3.10;;;5.00;99.90;;;;;;5029110;28;20550;-73
2021/05/03 03:04:57;;;;;;;6.93;3.75;;;5.10;99.90;;;;;;5030571;28;20065;-73
2021/05/03 03:07:23;;;;;;;9.38;3.72;;;5.20;99.90;;;;;;5030626;28;20034;-75
2021/05/03 03:09:48;;;;;;;8.25;3.72;;;5.20;99.90;;;;;;5030490;28;20538;-73
2021/05/03 03:12:14;;;;;;;6.32;3.83;;;5.20;99.90;;;;;;5030041;28;20033;-73
2021/05/03 03:14:41;;;;;;;8.43;4.10;;;5.30;99.90;;;;;;5030165;28;20076;-73
2021/05/03 03:17:08;;;;;;;7.25;3.85;;;5.30;99.90;;;;;;5029012;28;20052;-75
2021/05/03 03:19:40;;;;;;;9.13;3.90;;;5.30;99.90;;;;;;5028941;28;20018;-75
2021/05/03 03:22:06;;;;;;;10.57;4.07;;;5.40;99.90;;;;;;5029700;28;20044;-73
2021/05/03 03:24:33;;;;;;;7.57;3.78;;;5.40;99.90;;;;;;5031361;28;20590;-73
2021/05/03 03:26:59;;;;;;;8.32;4.80;;;5.40;99.70;;;;;;5033595;28;20037;-73
2021/05/03 03:29:24;;;;;;;7.43;4.30;;;5.50;99.50;;;;;;5033481;28;20507;-73
2021/05/03 03:31:50;;;;;;;11.55;4.18;;;5.60;99.50;;;;;;5032121;28;20026;-73
2021/05/03 03:34:16;;;;;;;7.45;4.15;;;5.60;99.60;;;;;;5033665;28;20037;-73
2021/05/03 03:36:41;;;;;;;7.45;4.32;;;5.50;99.90;;;;;;5032251;28;20116;-73
2021/05/03 03:39:07;;;;;;;9.60;4.40;;;5.50;99.90;;;;;;5033941;28;20479;-73
2021/05/03 03:41:34;;;;;;;6.90;3.90;;;5.50;99.90;;;;;;5033193;28;20091;-73
2021/05/03 03:44:00;;;;;;;9.32;4.18;;;5.50;99.80;;;;;;5033519;28;20092;-73
2021/05/03 03:46:26;;;;;;;9.10;4.75;;;5.50;99.90;;;;;;5032097;28;20025;-73
2021/05/03 03:48:52;;;;;;;9.88;4.30;;;5.50;99.80;;;;;;5033211;28;20109;-75
2021/05/03 03:51:17;;;;;;;8.20;4.47;;;5.50;99.90;;;;;;5033012;28;20025;-73
2021/05/03 03:53:43;;;;;;;7.82;3.90;;;5.50;99.70;;;;;;5031855;28;20030;-74
2021/05/03 03:56:11;;;;;;;14.40;4.45;;;5.60;99.70;;;;;;5033135;28;20435;-73
2021/05/03 03:58:37;;;;;;;7.40;4.30;;;5.60;99.80;;;;;;5033306;28;20021;-73
2021/05/03 04:01:03;;;;;;;10.23;4.55;;;5.60;99.40;;;;;;5031868;28;20079;-74
2021/05/03 04:03:28;;;;;;;8.07;4.50;;;5.60;99.40;;;;;;5032894;28;20019;-74
2021/05/03 04:06:12;;;;;;;7.65;4.22;;;5.70;99.50;;;;;;5031761;28;20021;-74
2021/05/03 04:11:35;;;;;;;8.02;4.35;;;5.50;99.80;;;;;;5032738;28;20036;-72
2021/05/03 04:25:06;;;;;;;6.88;4.07;;;5.60;99.90;;;;;;5052790;28;20096;-73
2021/05/03 04:27:29;;;;;;;6.68;4.13;;;5.60;99.90;;;;;;5052546;28;20025;-72
2021/05/03 04:29:55;;;;;;;8.05;4.35;;;5.60;99.90;;;;;;5052216;28;20036;-71
2021/05/03 04:32:20;;;;;;;6.97;4.28;;;5.50;99.90;;;;;;5052339;28;20017;-72
2021/05/03 04:34:46;;;;;;;11.18;5.45;;;5.60;99.90;;;;;;5050433;28;20025;-72
2021/05/03 04:37:11;;;;;;;10.85;4.75;;;5.70;99.90;;;;;;5052241;28;20024;-72
2021/05/03 04:39:37;;;;;;;7.57;4.43;;;5.80;99.30;;;;;;5052336;28;20464;-72
2021/05/03 04:42:03;;;;;;;8.65;5.22;;;6.00;99.40;;;;;;5051944;28;20104;-72
2021/05/03 04:44:28;;;;;;;7.47;4.28;;;6.00;99.70;;;;;;5052198;28;20031;-73
2021/05/03 04:46:54;;;;;;;8.15;4.00;;;6.00;99.60;;;;;;5052056;28;20549;-72
2021/05/03 04:49:19;;;;;;;6.97;4.05;;;6.00;99.10;;;;;;5052414;28;20029;-72
2021/05/03 04:51:45;;;;;;;9.10;4.88;;;6.10;99.60;;;;;;5051851;28;20066;-72
2021/05/03 04:54:10;;;;;;;8.25;4.18;;;6.00;99.90;;;;;;5051891;28;20430;-72
2021/05/03 04:56:36;;;;;;;16.20;4.90;;;6.00;99.90;;;;;;5052187;28;20490;-72
2021/05/03 04:59:01;;;;;;;7.30;4.28;;;5.90;99.90;;;;;;5051836;28;20047;-72
2021/05/03 05:01:27;;;;;;;11.13;4.72;;;6.00;99.50;;;;;;5050385;28;20067;-73
2021/05/03 05:03:53;;;;;;;8.77;4.60;;;6.00;99.90;;;;;;5051791;28;20028;-72
2021/05/03 05:06:19;;;;;;;9.60;5.00;;;6.00;99.90;;;;;;5051909;28;20025;-72
2021/05/03 05:08:44;;;;;;;10.05;5.57;;;5.80;99.90;;;;;;5051422;28;20617;-72
2021/05/03 05:11:10;;;;;;;10.80;5.97;;;5.70;99.90;;;;;;5051518;28;20147;-72
2021/05/03 05:13:36;;;;;;;14.30;7.45;;;5.70;99.90;;;;;;5051416;28;20021;-74
2021/05/03 05:16:02;;;;;;;13.40;6.32;;;5.60;99.90;;;;;;5043852;28;20566;-72
2021/05/03 05:18:27;;;;;;;11.25;6.28;;;5.50;99.90;;;;;;5041047;28;20116;-72
2021/05/03 05:20:53;;;;;;;10.20;5.00;;;5.40;99.90;;;;;;5032168;28;20029;-74
2021/05/03 05:23:18;;;;;;;10.48;6.43;;;5.40;99.90;;;;;;5033436;28;20025;-72
2021/05/03 05:25:44;;;;;;;11.23;6.03;;;5.60;99.90;;;;;;5040971;28;20025;-73
2021/05/03 05:28:10;;;;;;;10.13;5.15;;;5.60;99.90;;;;;;5033732;28;20113;-72
2021/05/03 05:30:35;;;;;;;9.13;5.10;;;5.70;99.90;;;;;;5051252;28;20380;-73
2021/05/03 05:33:01;;;;;;;8.13;5.00;;;5.70;99.90;;;;;;5050676;28;20052;-72
2021/05/03 05:35:26;;;;;;;8.73;5.05;;;5.80;99.90;;;;;;5051167;28;20031;-75
2021/05/03 05:37:52;;;;;;;7.07;4.30;;;5.90;99.90;;;;;;5051246;28;20415;-75
2021/05/03 05:40:17;;;;;;;10.30;4.53;;;6.10;99.90;;;;;;5051038;28;20023;-76
2021/05/03 05:42:43;;;;;;;10.77;5.10;;;6.10;99.90;;;;;;5050944;28;20021;-76
2021/05/03 05:45:09;;;;;;;9.10;4.82;;;6.20;99.90;;;;;;5051076;28;20051;-74
2021/05/03 05:47:35;;;;;;;7.35;4.38;;;6.30;99.90;;;;;;5044974;28;20029;-74
2021/05/03 05:50:01;;;;;;;9.63;4.28;;;6.50;99.10;;;;;;5034968;28;20507;-74
2021/05/03 05:52:26;;;;;;;8.27;4.38;;;6.70;99.20;;;;;;5030767;28;20407;-74
2021/05/03 05:54:53;;;;;;;7.10;4.38;;;6.80;98.40;;;;;;5047541;28;20028;-73
2021/05/03 05:57:18;;;;;;;10.65;4.82;;;6.90;98.50;;;;;;5050832;28;20104;-74
2021/05/03 05:59:44;;;;;;;10.65;4.60;;;7.10;98.30;;;;;;5050879;28;20593;-74
2021/05/03 06:02:09;;;;;;;7.63;4.38;;;7.10;98.60;;;;;;5050874;28;20578;-75
2021/05/03 06:04:36;;;;;;;7.80;4.35;;;7.10;98.30;;;;;;5049531;28;20075;-74
2021/05/03 06:07:02;;;;;;;10.20;5.32;;;7.10;98.80;;;;;;5049442;28;20166;-74
2021/05/03 06:09:27;;;;;;;8.40;4.55;;;7.20;99.20;;;;;;5051058;28;20500;-74
2021/05/03 06:11:53;;;;;;;10.15;5.63;;;7.20;99.10;;;;;;5032082;28;20112;-74
2021/05/03 06:14:19;;;;;;;9.13;5.05;;;7.50;98.00;;;;;;5028454;28;20111;-72
2021/05/03 06:16:44;;;;;;;10.93;5.03;;;7.60;97.80;;;;;;5037706;28;20059;-71
2021/05/03 06:19:10;;;;;;;8.43;4.30;;;7.60;97.00;;;;;;5050654;28;20024;-71
2021/05/03 06:21:35;;;;;;;9.70;4.88;;;7.60;97.70;;;;;;5050420;28;20044;-72
2021/05/03 06:24:01;;;;;;;15.63;4.53;;;7.60;97.40;;;;;;5050416;28;20025;-72
2021/05/03 06:26:27;;;;;;;8.85;4.18;;;7.60;97.10;;;;;;5050695;28;20028;-72
2021/05/03 06:28:52;;;;;;;8.15;4.30;;;7.80;96.80;;;;;;5050539;28;20431;-72
2021/05/03 06:31:20;;;;;;;8.43;4.68;;;8.00;97.70;;;;;;5049478;28;20047;-75
2021/05/03 06:33:45;;;;;;;8.82;4.13;;;8.00;98.10;;;;;;5050838;28;20104;-75
2021/05/03 06:36:11;;;;;;;8.32;3.97;;;8.10;95.90;;;;;;5049250;28;20121;-74
2021/05/03 06:38:36;;;;;;;9.82;4.13;;;8.00;95.60;;;;;;5049172;28;20021;-75
2021/05/03 06:41:02;;;;;;;7.75;3.50;;;8.10;96.80;;;;;;5050574;28;20422;-74
2021/05/03 06:43:28;;;;;;;8.60;3.90;;;8.10;95.40;;;;;;5050204;28;20036;-72
2021/05/03 06:45:56;;;;;;;7.07;2.92;;;8.10;95.80;;;;;;5048974;28;20199;-73
2021/05/03 06:48:22;;;;;;;8.38;3.03;;;8.30;94.80;;;;;;5050701;28;20108;-75
2021/05/03 06:50:48;;;;;;;6.75;2.72;;;8.30;94.40;;;;;;5048218;28;20487;-76
2021/05/03 06:53:13;;;;;;;8.90;3.28;;;8.40;93.20;;;;;;5048834;28;20124;-75
2021/05/03 06:55:41;;;;;;;5.53;2.25;;;8.30;93.30;;;;;;5043302;28;20029;-76
2021/05/03 06:58:06;;;;;;;6.20;2.65;;;8.20;92.70;;;;;;5033954;28;20032;-76
2021/05/03 07:00:38;;;;;;;7.45;2.67;;;8.20;92.70;;;;;;5034356;28;20399;-76
2021/05/03 07:03:03;;;;;;;6.35;2.95;;;8.30;93.30;;;;;;5033962;28;20021;-76
2021/05/03 07:05:29;;;;;;;7.03;2.60;;;8.20;92.60;;;;;;5034036;28;20037;-77
2021/05/03 07:07:54;;;;;;;6.50;2.42;;;8.30;92.40;;;;;;5032935;28;20033;-76
2021/05/03 07:10:20;;;;;;;6.07;2.45;;;8.40;92.40;;;;;;5034273;28;20032;-74
2021/05/03 07:12:48;;;;;;;5.32;2.30;;;8.40;91.50;;;;;;5033936;28;20388;-75
2021/05/03 07:15:15;;;;;;;7.03;1.92;;;8.40;91.80;;;;;;5032516;28;20033;-75
2021/05/03 07:17:41;;;;;;;3.95;1.80;;;8.50;92.30;;;;;;5040300;28;20108;-72
2021/05/03 07:20:08;;;;;;;5.00;2.35;;;8.70;92.10;;;;;;5050070;28;20092;-72
2021/05/03 07:22:34;;;;;;;6.30;2.10;;;9.00;92.30;;;;;;5044307;28;20036;-73
2021/05/03 07:25:03;;;;;;;3.65;2.03;;;9.00;90.70;;;;;;5043822;28;20415;-73
2021/05/03 07:27:28;;;;;;;4.75;2.13;;;8.80;92.30;;;;;;5038091;28;20112;-72
2021/05/03 07:29:54;;;;;;;4.80;2.22;;;9.00;90.60;;;;;;5043172;28;20049;-73
2021/05/03 07:32:19;;;;;;;6.32;2.35;;;8.80;91.10;;;;;;5043490;28;20040;-72
2021/05/03 07:34:45;;;;;;;5.70;2.27;;;8.90;91.50;;;;;;5041766;28;20021;-72
2021/05/03 07:37:10;;;;;;;5.80;2.70;;;9.00;90.80;;;;;;5047550;28;20237;-72
2021/05/03 07:39:36;;;;;;;6.43;2.33;;;9.10;91.20;;;;;;5053309;28;20387;-71
2021/05/03 07:42:02;;;;;;;6.50;2.60;;;9.00;91.20;;;;;;5046151;28;20449;-72
2021/05/03 07:44:28;;;;;;;7.78;2.78;;;9.00;91.30;;;;;;5045721;28;20017;-72
2021/05/03 07:46:53;;;;;;;5.40;2.80;;;8.90;91.00;;;;;;5042154;28;20020;-72
2021/05/03 07:49:19;;;;;;;5.20;2.85;;;8.90;92.10;;;;;;5040291;28;20411;-71
2021/05/03 07:51:45;;;;;;;5.72;2.45;;;8.80;91.30;;;;;;5042966;28;20017;-71
2021/05/03 07:54:15;;;;;;;5.53;2.50;;;8.70;91.70;;;;;;5039361;28;20021;-71
2021/05/03 07:56:41;;;;;;;8.20;2.22;;;8.90;90.70;;;;;;5040453;28;20112;-71
2021/05/03 07:59:06;;;;;;;10.55;3.35;;;9.00;91.30;;;;;;5034719;28;20500;-72
2021/05/03 08:01:32;;;;;;;5.45;2.45;;;9.20;92.60;;;;;;5031461;28;20025;-71
2021/05/03 08:03:57;;;;;;;4.90;2.20;;;9.20;90.40;;;;;;5032999;28;20053;-71
2021/05/03 08:06:23;;;;;;;5.32;2.85;;;9.20;90.50;;;;;;5032845;28;20492;-73
2021/05/03 08:08:48;;;;;;;6.10;2.50;;;9.00;90.60;;;;;;5032542;28;20483;-73
2021/05/03 08:11:15;;;;;;;7.10;2.72;;;8.90;91.50;;;;;;5046306;28;20399;-74
2021/05/03 08:13:43;;;;;;;6.57;2.75;;;9.00;92.00;;;;;;5051891;28;20024;-73
2021/05/03 08:16:12;;;;;;;6.57;2.90;;;9.10;90.70;;;;;;5052735;28;20021;-74
2021/05/03 08:18:39;;;;;;;6.05;2.60;;;9.00;90.00;;;;;;5052584;28;20025;-74
2021/05/03 08:21:06;;;;;;;7.18;2.60;;;9.00;90.50;;;;;;5052212;28;20026;-73
2021/05/03 08:23:32;;;;;;;5.60;2.30;;;9.20;89.60;;;;;;5052418;28;20047;-73
2021/05/03 08:25:57;;;;;;;6.25;2.78;;;9.40;90.10;;;;;;5051042;28;20021;-73
2021/05/03 08:28:23;;;;;;;5.60;2.20;;;9.50;88.30;;;;;;5052319;28;20064;-72
2021/05/03 08:30:50;;;;;;;6.00;2.80;;;9.50;90.20;;;;;;5051228;28;20041;-72
2021/05/03 08:33:17;;;;;;;7.95;2.53;;;9.70;91.00;;;;;;5049953;28;20100;-71
2021/05/03 08:35:43;;;;;;;5.90;2.22;;;9.70;90.30;;;;;;5051316;28;20064;-71
2021/05/03 08:38:09;;;;;;;4.75;2.10;;;9.80;87.10;;;;;;5051610;28;20339;-71
2021/05/03 08:40:35;;;;;;;5.32;2.60;;;9.70;89.50;;;;;;5051480;28;20025;-72
2021/05/03 08:43:02;;;;;;;4.53;2.20;;;9.80;89.30;;;;;;5050008;28;20021;-73
2021/05/03 08:45:29;;;;;;;6.43;2.47;;;9.80;90.40;;;;;;5033167;28;20029;-74
2021/05/03 08:53:36;;;;;;;5.43;2.28;;;10.00;86.80;;;;;;5019885;28;20052;-73
2021/05/03 08:56:02;;;;;;;4.57;2.20;;;10.20;85.80;;;;;;5031088;28;20044;-73
2021/05/03 08:58:28;;;;;;;5.50;2.20;;;10.20;86.10;;;;;;5036222;28;20407;-73
2021/05/03 09:00:54;;;;;;;5.25;2.33;;;10.30;84.50;;;;;;5038912;28;20030;-73
2021/05/03 09:03:21;;;;;;;5.45;2.25;;;10.20;83.70;;;;;;5038742;28;20028;-73
2021/05/03 09:05:46;;;;;;;5.40;2.15;;;10.30;87.50;;;;;;5041918;28;20029;-73
2021/05/03 09:08:26;;;;;;;5.00;2.30;;;10.60;83.20;;;;;;5038770;28;20368;-72
2021/05/03 09:10:53;;;;;;;5.28;2.00;;;10.60;82.20;;;;;;5038076;28;20029;-73
2021/05/03 09:13:27;;;;;;;4.03;2.20;;;10.40;81.90;;;;;;5040084;28;20028;-73
2021/05/03 09:16:21;;;;;;;5.35;2.03;;;10.50;84.80;;;;;;5040672;28;20357;-72
2021/05/03 09:18:47;;;;;;;4.75;2.30;;;10.50;82.30;;;;;;5035740;28;20076;-73
2021/05/03 09:21:21;;;;;;;9.27;2.30;;;10.70;82.70;;;;;;5032937;28;20067;-72
2021/05/03 09:27:06;;;;;;;6.60;2.55;;;10.70;80.90;;;;;;5041453;28;20499;-73
2021/05/03 09:29:43;;;;;;;6.45;2.33;;;10.80;82.70;;;;;;5020213;28;565900;-73
2021/05/03 09:32:12;;;;;;;4.28;2.20;;;10.90;83.20;;;;;;5039720;28;20108;-73
2021/05/03 09:34:47;;;;;;;5.68;2.50;;;11.00;82.40;;;;;;5045328;28;20025;-73
2021/05/03 09:37:21;;;;;;;5.22;2.65;;;11.10;80.20;;;;;;5051155;28;20025;-73
2021/05/03 09:39:58;;;;;;;4.63;2.22;;;11.30;77.60;;;;;;5051009;28;20067;-72
2021/05/03 09:42:39;;;;;;;4.53;2.40;;;11.40;78.00;;;;;;5049621;28;20017;-73
2021/05/03 09:45:08;;;;;;;4.50;2.17;;;11.40;79.10;;;;;;5051127;28;20071;-72
2021/05/03 09:47:35;;;;;;;4.00;2.25;;;11.60;75.80;;;;;;5049749;28;20422;-72
2021/05/03 09:50:10;;;;;;;5.72;2.45;;;11.50;74.70;;;;;;5030860;28;20043;-74
2021/05/03 09:52:35;;;;;;;4.85;2.33;;;11.40;76.10;;;;;;5030864;28;20484;-72
2021/05/03 09:55:02;;;;;;;4.95;2.55;;;11.50;81.50;;;;;;5030937;28;20108;-73
2021/05/03 09:57:27;;;;;;;4.78;2.00;;;11.70;74.70;;;;;;5031184;28;20376;-73
2021/05/03 09:59:54;;;;;;;5.38;2.10;;;11.80;72.40;;;;;;5030807;28;20022;-73
2021/05/03 10:02:32;;;;;;;4.60;1.83;;;11.60;69.30;;;;;;5030570;28;20087;-73
2021/05/03 10:07:34;;;;;;;4.82;2.55;;;11.90;69.60;;;;;;5030881;28;20017;-71
2021/05/03 10:12:33;;;;;;;3.58;1.85;;;12.00;71.10;;;;;;5030988;28;20643;-71
2021/05/03 10:15:02;;;;;;;3.70;2.00;;;12.00;70.40;;;;;;5030748;28;20071;-71
2021/05/03 10:17:30;;;;;;;5.45;1.98;;;11.90;67.20;;;;;;5030718;28;20014;-71
2021/05/03 10:19:58;;;;;;;4.18;2.00;;;11.90;69.30;;;;;;5041458;28;20083;-71
2021/05/03 10:22:24;;;;;;;5.88;2.40;;;12.10;69.30;;;;;;5030578;28;20535;-71
2021/05/03 10:24:54;;;;;;;5.20;2.08;;;12.30;68.00;;;;;;5030845;28;20037;-71
2021/05/03 10:27:22;;;;;;;3.87;2.20;;;12.30;66.70;;;;;;5030940;28;20037;-71
2021/05/03 10:30:03;;;;;;;4.63;2.20;;;12.30;66.70;;;;;;5030381;28;20272;-71
2021/05/03 10:32:28;;;;;;;6.85;2.30;;;12.30;64.80;;;;;;5031655;28;20040;-71
2021/05/03 10:34:54;;;;;;;5.15;2.20;;;12.50;67.50;;;;;;5037288;28;20029;-72
2021/05/03 10:37:31;;;;;;;6.47;2.80;;;12.80;66.50;;;;;;5037333;28;20459;-72
2021/05/03 10:39:58;;;;;;;4.00;1.83;;;12.90;63.70;;;;;;5042429;28;20016;-71
2021/05/03 10:42:24;;;;;;;4.35;2.50;;;13.10;65.80;;;;;;5034378;28;20056;-71
2021/05/03 10:45:07;;;;;;;5.20;2.92;;;13.20;61.60;;;;;;5034526;28;20411;-72
2021/05/03 10:47:41;;;;;;;5.18;2.60;;;13.40;64.00;;;;;;5034553;28;20049;-72
2021/05/03 10:50:30;;;;;;;6.18;2.40;;;13.40;61.00;;;;;;5034552;28;20093;-71
2021/05/03 10:53:19;;;;;;;5.20;2.60;;;13.40;62.20;;;;;;5032931;28;20013;-71
2021/05/03 10:55:53;;;;;;;4.78;2.35;;;13.50;62.80;;;;;;5032986;28;20048;-71
2021/05/03 10:58:19;;;;;;;5.32;2.50;;;13.60;59.70;;;;;;5034210;28;20538;-72
2021/05/03 11:01:11;;;;;;;4.40;2.50;;;13.60;61.30;;;;;;5034480;28;20029;-72
2021/05/03 11:03:55;;;;;;;5.05;2.60;;;13.70;61.60;;;;;;5031538;28;20033;-73
2021/05/03 11:06:36;;;;;;;5.43;2.72;;;13.90;58.10;;;;;;5034546;28;20032;-72
2021/05/03 11:09:31;;;;;;;5.43;2.60;;;13.90;60.70;;;;;;5034092;28;20487;-71
2021/05/03 11:12:23;;;;;;;4.55;2.33;;;14.10;61.60;;;;;;5032500;28;20531;-72
2021/05/03 11:15:15;;;;;;;4.95;2.22;;;14.40;58.90;;;;;;5033868;28;20476;-72
2021/05/03 11:18:27;;;;;;;6.72;2.65;;;14.60;59.50;;;;;;5034168;28;20048;-72
2021/05/03 11:21:04;;;;;;;7.68;2.85;;;14.40;55.60;;;;;;5033975;28;20017;-72
2021/05/03 11:23:33;;;;;;;6.20;2.85;;;14.10;57.60;;;;;;5033581;28;20087;-72
2021/05/03 11:25:58;;;;;;;5.35;2.70;;;14.20;57.00;;;;;;5032446;28;20025;-72
2021/05/03 11:28:30;;;;;;;5.72;2.67;;;13.90;58.80;;;;;;5033787;28;20025;-72
2021/05/03 11:31:01;;;;;;;4.97;2.40;;;13.70;57.30;;;;;;5033624;28;20029;-72
2021/05/03 11:33:37;;;;;;;6.32;2.65;;;13.60;57.60;;;;;;5033244;28;20025;-72
2021/05/03 11:36:22;;;;;;;5.30;2.85;;;13.60;59.00;;;;;;5032194;28;20032;-72
2021/05/03 11:39:18;;;;;;;7.63;2.97;;;13.70;59.90;;;;;;5033648;28;20071;-73
2021/05/03 11:41:56;;;;;;;5.57;2.90;;;13.80;57.20;;;;;;5032999;28;20037;-72
2021/05/03 11:44:44;;;;;;;5.32;2.78;;;14.10;58.30;;;;;;5033206;28;20018;-72
2021/05/03 11:47:10;;;;;;;5.15;2.65;;;14.30;62.70;;;;;;5033472;28;20029;-72
2021/05/03 11:49:45;;;;;;;5.03;2.85;;;14.40;58.20;;;;;;5032081;28;20025;-72
2021/05/03 11:52:11;;;;;;;6.38;2.75;;;14.40;58.10;;;;;;5033149;28;20109;-72
2021/05/03 11:54:43;;;;;;;6.90;3.13;;;14.60;55.60;;;;;;5033339;28;20037;-72
2021/05/03 11:57:16;;;;;;;6.93;3.45;;;14.20;56.90;;;;;;5031947;28;20280;-72
2021/05/03 11:59:41;;;;;;;8.07;3.25;;;13.90;59.20;;;;;;5033346;28;20067;-72
2021/05/03 12:02:12;;;;;;;5.82;3.30;;;13.70;56.30;;;;;;5033036;28;20026;-72
2021/05/03 12:04:48;;;;;;;;;;;13.40;58.10;;;;;;5033566;28;20028;-72
2021/05/03 12:07:18;;;;;;;6.70;3.42;;;13.50;60.10;;;;;;5033117;28;19916;-72
2021/05/03 12:09:45;;;;;;;6.93;3.07;;;13.70;56.70;;;;;;5033132;28;20116;-73
2021/05/03 12:12:11;;;;;;;5.00;2.88;;;13.70;56.50;;;;;;5032756;28;20033;-72
2021/05/03 12:14:37;;;;;;;5.13;2.85;;;13.70;57.70;;;;;;5033037;28;20025;-72
2021/05/03 12:17:12;;;;;;;5.50;3.22;;;13.70;55.50;;;;;;5033075;28;20025;-72
2021/05/03 12:19:38;;;;;;;7.88;3.00;;;13.70;56.80;;;;;;5033166;28;20392;-73
2021/05/03 12:22:03;;;;;;;4.55;2.58;;;14.00;57.80;;;;;;5032641;28;20083;-73
2021/05/03 12:24:36;;;;;;;5.95;2.70;;;14.60;55.70;;;;;;5031627;28;20045;-73
2021/05/03 12:27:01;;;;;;;4.72;2.60;;;14.80;56.60;;;;;;5031708;28;20118;-73
2021/05/03 12:29:29;;;;;;;5.25;2.70;;;14.70;56.10;;;;;;5031436;28;20496;-73
2021/05/03 12:31:55;;;;;;;6.20;2.88;;;14.90;54.20;;;;;;5031855;28;20116;-73
2021/05/03 12:34:23;;;;;;;5.63;2.83;;;15.30;53.90;;;;;;5032805;28;20025;-72
2021/05/03 12:37:09;;;;;;;20.45;9.45;;;15.30;53.30;;;;;;5031215;28;20029;-72
2021/05/03 12:39:38;;;;;;;5.60;2.35;;;15.20;53.50;;;;;;5032532;28;20017;-73
2021/05/03 12:42:17;;;;;;;6.95;2.90;;;14.90;52.20;;;;;;5031081;28;20128;-73
2021/05/03 12:44:58;;;;;;;6.18;2.40;;;15.00;52.80;;;;;;5032340;28;20018;-73
2021/05/03 12:50:08;;;;;;;5.97;2.47;;;15.50;53.10;;;;;;5032647;28;20017;-73
2021/05/03 12:52:43;;;;;;;4.40;2.42;;;15.70;53.40;;;;;;5032396;28;20024;-73
2021/05/03 12:55:18;;;;;;;7.30;2.50;;;16.00;53.60;;;;;;5032235;28;20270;-73
2021/05/03 12:58:07;;;;;;;4.22;2.00;;;16.10;48.90;;;;;;5031537;28;20018;-74
2021/05/03 13:00:47;;;;;;;7.20;2.80;;;15.90;49.30;;;;;;5031964;28;20014;-74
2021/05/03 13:03:16;;;;;;;5.20;2.70;;;15.80;50.90;;;;;;5030207;28;20031;-74
2021/05/03 13:05:50;;;;;;;5.97;2.60;;;16.40;53.50;;;;;;5030566;28;20048;-73
2021/05/03 13:08:45;;;;;;;6.93;2.65;;;17.60;50.40;;;;;;5032128;28;20071;-74
2021/05/03 13:29:14;;;;;;;6.20;2.10;;;16.80;43.80;;;;;;5051180;28;20039;-73
2021/05/03 13:31:42;;;;;;;4.07;1.70;;;17.20;46.80;;;;;;5051088;28;20079;-74
2021/05/03 13:34:10;;;;;;;3.75;2.03;;;18.60;43.30;;;;;;5048080;28;20109;-74
2021/05/03 13:36:37;;;;;;;6.18;1.73;;;19.20;41.40;;;;;;5050032;28;20312;-74
2021/05/03 13:39:05;;;;;;;3.65;1.50;;;18.60;41.40;;;;;;5043206;28;20048;-73
2021/05/03 13:41:42;;;;;;;3.80;1.55;;;17.50;43.20;;;;;;5040142;28;20017;-74
2021/05/03 13:44:10;;;;;;;5.82;2.08;;;16.70;43.40;;;;;;5039373;28;20017;-73
2021/05/03 13:46:35;;;;;;;3.58;1.75;;;16.30;43.70;;;;;;5032443;28;20095;-74
2021/05/03 13:49:03;;;;;;;3.97;1.98;;;16.60;43.00;;;;;;5032542;28;20473;-74